Perkins, Oklahoma
Current Conditions -  °F | °C
As of 9:53 AM on Thursday 23 Oct 2014 (Local Time) from KSWO Reporting Station
Broken Clouds Broken Clouds  
Wind Chill: 63°   Ceiling: 5000
Heat Index: 63°   Visibility: 10mi
Dew Point: 57°   Wind: 9mph
Humidity: 81%   Direction: 180°S
Pressure: 30.14"   Gusts: NA
Location:  35.97°N, 97.03°W
Report Text: KSWO 231453Z 18008KT 10SM FEW039 BKN050 17/14 A3014 RMK AO2 SLP197 T01720139 53010
Loading
Personal Weather Stations






























Interactive Weather Map
Tropical Storm Tracking
New forecast layout! Learn more

10-Day Weather Forecast

Advertisements
Track Severe Weather on mobile